sensor_id;sensor_type;location;lat;lon;timestamp;pressure;altitude;pressure_sealevel;temperature;humidity
17525;BME280;40431;52.198;9.902;2024-01-25T00:01:23;101283.84;;;7.58;100.00
17525;BME280;40431;52.198;9.902;2024-01-25T00:04:01;101279.28;;;7.60;100.00
17525;BME280;40431;52.198;9.902;2024-01-25T00:06:31;101286.56;;;7.58;100.00
17525;BME280;40431;52.198;9.902;2024-01-25T00:09:01;101287.53;;;7.55;100.00
17525;BME280;40431;52.198;9.902;2024-01-25T00:11:30;101281.16;;;7.58;100.00
17525;BME280;40431;52.198;9.902;2024-01-25T00:14:00;101271.19;;;7.60;100.00
17525;BME280;40431;52.198;9.902;2024-01-25T00:16:28;101287.41;;;7.60;100.00
17525;BME280;40431;52.198;9.902;2024-01-25T00:18:59;101283.84;;;7.58;100.00
17525;BME280;40431;52.198;9.902;2024-01-25T00:21:30;101279.41;;;7.57;100.00
17525;BME280;40431;52.198;9.902;2024-01-25T00:24:03;101282.22;;;7.53;100.00
17525;BME280;40431;52.198;9.902;2024-01-25T00:26:33;101291.16;;;7.56;100.00
17525;BME280;40431;52.198;9.902;2024-01-25T00:29:08;101292.94;;;7.55;100.00
17525;BME280;40431;52.198;9.902;2024-01-25T00:31:43;101300.34;;;7.50;100.00
17525;BME280;40431;52.198;9.902;2024-01-25T00:34:19;101299.38;;;7.52;100.00
17525;BME280;40431;52.198;9.902;2024-01-25T00:36:47;101292.06;;;7.55;100.00
17525;BME280;40431;52.198;9.902;2024-01-25T00:39:20;101303.75;;;7.55;100.00
17525;BME280;40431;52.198;9.902;2024-01-25T00:41:58;101299.25;;;7.56;100.00
17525;BME280;40431;52.198;9.902;2024-01-25T00:44:33;101295.63;;;7.57;100.00
17525;BME280;40431;52.198;9.902;2024-01-25T00:47:01;101310.16;;;7.52;100.00
17525;BME280;40431;52.198;9.902;2024-01-25T00:49:30;101318.28;;;7.51;100.00
17525;BME280;40431;52.198;9.902;2024-01-25T00:52:00;101306.63;;;7.50;100.00
17525;BME280;40431;52.198;9.902;2024-01-25T00:54:31;101307.59;;;7.48;100.00
17525;BME280;40431;52.198;9.902;2024-01-25T00:57:01;101317.28;;;7.53;100.00
17525;BME280;40431;52.198;9.902;2024-01-25T00:59:37;101328.09;;;7.53;100.00
17525;BME280;40431;52.198;9.902;2024-01-25T01:02:14;101337.03;;;7.56;100.00
17525;BME280;40431;52.198;9.902;2024-01-25T01:04:46;101329.97;;;7.51;100.00
17525;BME280;40431;52.198;9.902;2024-01-25T01:07:17;101334.47;;;7.51;100.00
17525;BME280;40431;52.198;9.902;2024-01-25T01:09:49;101330.84;;;7.52;100.00
17525;BME280;40431;52.198;9.902;2024-01-25T01:12:17;101337.34;;;7.46;100.00
17525;BME280;40431;52.198;9.902;2024-01-25T01:14:48;101331.06;;;7.46;100.00
17525;BME280;40431;52.198;9.902;2024-01-25T01:17:19;101314.78;;;7.49;100.00
17525;BME280;40431;52.198;9.902;2024-01-25T01:22:36;101317.69;;;7.43;100.00
17525;BME280;40431;52.198;9.902;2024-01-25T01:25:06;101317.63;;;7.44;100.00
17525;BME280;40431;52.198;9.902;2024-01-25T01:27:37;101314.13;;;7.42;100.00
17525;BME280;40431;52.198;9.902;2024-01-25T01:30:08;101313.28;;;7.40;100.00
17525;BME280;40431;52.198;9.902;2024-01-25T01:32:37;101325.91;;;7.40;100.00
17525;BME280;40431;52.198;9.902;2024-01-25T01:35:13;101335.69;;;7.42;100.00
17525;BME280;40431;52.198;9.902;2024-01-25T01:37:42;101320.44;;;7.41;100.00
17525;BME280;40431;52.198;9.902;2024-01-25T01:40:13;101321.38;;;7.40;100.00
17525;BME280;40431;52.198;9.902;2024-01-25T01:42:48;101333.94;;;7.41;100.00
17525;BME280;40431;52.198;9.902;2024-01-25T01:45:24;101339.31;;;7.41;100.00
17525;BME280;40431;52.198;9.902;2024-01-25T01:48:02;101338.41;;;7.42;100.00
17525;BME280;40431;52.198;9.902;2024-01-25T01:50:30;101347.53;;;7.38;100.00
17525;BME280;40431;52.198;9.902;2024-01-25T01:53:02;101351.16;;;7.37;100.00
17525;BME280;40431;52.198;9.902;2024-01-25T01:55:40;101344.94;;;7.35;100.00
17525;BME280;40431;52.198;9.902;2024-01-25T01:58:15;101343.22;;;7.32;100.00
17525;BME280;40431;52.198;9.902;2024-01-25T02:00:46;101356.75;;;7.31;100.00
17525;BME280;40431;52.198;9.902;2024-01-25T02:03:17;101366.50;;;7.35;100.00
17525;BME280;40431;52.198;9.902;2024-01-25T02:05:45;101360.13;;;7.38;100.00
17525;BME280;40431;52.198;9.902;2024-01-25T02:08:15;101358.41;;;7.37;100.00
17525;BME280;40431;52.198;9.902;2024-01-25T02:10:50;101370.97;;;7.36;100.00
17525;BME280;40431;52.198;9.902;2024-01-25T02:13:21;101376.38;;;7.36;100.00
17525;BME280;40431;52.198;9.902;2024-01-25T02:15:52;101374.78;;;7.30;100.00
17525;BME280;40431;52.198;9.902;2024-01-25T02:18:20;101384.72;;;7.28;100.00
17525;BME280;40431;52.198;9.902;2024-01-25T02:20:48;101375.88;;;7.25;100.00
17525;BME280;40431;52.198;9.902;2024-01-25T02:23:18;101371.28;;;7.27;100.00
17525;BME280;40431;52.198;9.902;2024-01-25T02:25:47;101378.53;;;7.26;100.00
17525;BME280;40431;52.198;9.902;2024-01-25T02:28:18;101373.19;;;7.25;100.00
17525;BME280;40431;52.198;9.902;2024-01-25T02:30:53;101365.03;;;7.26;100.00
17525;BME280;40431;52.198;9.902;2024-01-25T02:33:21;101373.13;;;7.26;100.00
17525;BME280;40431;52.198;9.902;2024-01-25T02:35:49;101379.59;;;7.21;100.00
17525;BME280;40431;52.198;9.902;2024-01-25T02:38:16;101379.69;;;7.17;100.00
17525;BME280;40431;52.198;9.902;2024-01-25T02:40:44;101377.91;;;7.18;100.00
17525;BME280;40431;52.198;9.902;2024-01-25T02:43:12;101385.94;;;7.19;100.00
17525;BME280;40431;52.198;9.902;2024-01-25T02:45:40;101396.69;;;7.21;100.00
17525;BME280;40431;52.198;9.902;2024-01-25T02:48:08;101406.78;;;7.14;100.00
17525;BME280;40431;52.198;9.902;2024-01-25T02:50:37;101406.63;;;7.19;100.00
17525;BME280;40431;52.198;9.902;2024-01-25T02:53:05;101404.16;;;7.13;100.00
17525;BME280;40431;52.198;9.902;2024-01-25T02:55:34;101413.16;;;7.12;100.00
17525;BME280;40431;52.198;9.902;2024-01-25T02:58:09;101399.63;;;7.13;100.00
17525;BME280;40431;52.198;9.902;2024-01-25T03:00:38;101397.84;;;7.12;100.00
17525;BME280;40431;52.198;9.902;2024-01-25T03:03:10;101406.00;;;7.11;100.00
17525;BME280;40431;52.198;9.902;2024-01-25T03:05:42;101406.91;;;7.10;100.00
17525;BME280;40431;52.198;9.902;2024-01-25T03:08:12;101402.44;;;7.10;100.00
17525;BME280;40431;52.198;9.902;2024-01-25T03:10:42;101403.25;;;7.12;100.00
17525;BME280;40431;52.198;9.902;2024-01-25T03:13:10;101413.16;;;7.12;100.00
17525;BME280;40431;52.198;9.902;2024-01-25T03:15:38;101394.41;;;7.07;100.00
17525;BME280;40431;52.198;9.902;2024-01-25T03:18:06;101410.59;;;7.07;100.00
17525;BME280;40431;52.198;9.902;2024-01-25T03:20:37;101395.38;;;7.06;100.00
17525;BME280;40431;52.198;9.902;2024-01-25T03:23:06;101387.38;;;7.03;100.00
17525;BME280;40431;52.198;9.902;2024-01-25T03:25:35;101389.19;;;7.02;100.00
17525;BME280;40431;52.198;9.902;2024-01-25T03:28:05;101389.25;;;7.01;100.00
17525;BME280;40431;52.198;9.902;2024-01-25T03:30:35;101384.03;;;6.95;100.00
17525;BME280;40431;52.198;9.902;2024-01-25T03:33:02;101378.47;;;7.01;100.00
17525;BME280;40431;52.198;9.902;2024-01-25T03:35:29;101382.09;;;7.00;100.00
17525;BME280;40431;52.198;9.902;2024-01-25T03:37:55;101390.16;;;7.00;100.00
17525;BME280;40431;52.198;9.902;2024-01-25T03:40:22;101397.41;;;6.99;100.00
17525;BME280;40431;52.198;9.902;2024-01-25T03:42:48;101395.72;;;6.95;100.00
17525;BME280;40431;52.198;9.902;2024-01-25T03:45:16;101382.38;;;6.91;100.00
17525;BME280;40431;52.198;9.902;2024-01-25T03:47:42;101395.06;;;6.87;100.00
17525;BME280;40431;52.198;9.902;2024-01-25T03:50:09;101400.63;;;6.82;100.00
17525;BME280;40431;52.198;9.902;2024-01-25T03:52:36;101406.09;;;6.79;100.00
17525;BME280;40431;52.198;9.902;2024-01-25T03:55:02;101404.44;;;6.75;100.00
17525;BME280;40431;52.198;9.902;2024-01-25T03:57:29;101426.97;;;6.73;100.00
17525;BME280;40431;52.198;9.902;2024-01-25T03:59:56;101426.22;;;6.69;100.00
17525;BME280;40431;52.198;9.902;2024-01-25T04:02:23;101426.28;;;6.66;100.00
17525;BME280;40431;52.198;9.902;2024-01-25T04:04:50;101421.09;;;6.60;100.00
17525;BME280;40431;52.198;9.902;2024-01-25T04:07:16;101439.31;;;6.51;100.00
17525;BME280;40431;52.198;9.902;2024-01-25T04:09:42;101432.09;;;6.52;100.00
17525;BME280;40431;52.198;9.902;2024-01-25T04:12:09;101435.66;;;6.52;100.00
17525;BME280;40431;52.198;9.902;2024-01-25T04:14:36;101445.75;;;6.46;100.00
17525;BME280;40431;52.198;9.902;2024-01-25T04:17:02;101457.22;;;6.52;100.00
17525;BME280;40431;52.198;9.902;2024-01-25T04:19:30;101452.75;;;6.53;100.00
17525;BME280;40431;52.198;9.902;2024-01-25T04:21:57;101457.31;;;6.49;100.00
17525;BME280;40431;52.198;9.902;2024-01-25T04:24:23;101467.94;;;6.56;100.00
17525;BME280;40431;52.198;9.902;2024-01-25T04:26:49;101455.38;;;6.55;100.00
17525;BME280;40431;52.198;9.902;2024-01-25T04:29:16;101457.16;;;6.56;100.00
17525;BME280;40431;52.198;9.902;2024-01-25T04:31:43;101470.56;;;6.57;100.00
17525;BME280;40431;52.198;9.902;2024-01-25T04:34:10;101487.53;;;6.61;100.00
17525;BME280;40431;52.198;9.902;2024-01-25T04:36:37;101479.59;;;6.56;100.00
17525;BME280;40431;52.198;9.902;2024-01-25T04:39:04;101486.81;;;6.54;100.00
17525;BME280;40431;52.198;9.902;2024-01-25T04:41:31;101479.63;;;6.55;100.00
17525;BME280;40431;52.198;9.902;2024-01-25T04:43:57;101473.34;;;6.54;100.00
17525;BME280;40431;52.198;9.902;2024-01-25T04:46:24;101480.56;;;6.54;100.00
17525;BME280;40431;52.198;9.902;2024-01-25T04:48:51;101484.16;;;6.52;100.00
17525;BME280;40431;52.198;9.902;2024-01-25T04:51:18;101483.31;;;6.52;100.00
17525;BME280;40431;52.198;9.902;2024-01-25T04:53:46;101478.88;;;6.49;100.00
17525;BME280;40431;52.198;9.902;2024-01-25T04:56:13;101497.00;;;6.44;100.00
17525;BME280;40431;52.198;9.902;2024-01-25T04:58:39;101496.88;;;6.47;100.00
17525;BME280;40431;52.198;9.902;2024-01-25T05:01:05;101501.44;;;6.45;100.00
17525;BME280;40431;52.198;9.902;2024-01-25T05:03:32;101513.16;;;6.44;100.00
17525;BME280;40431;52.198;9.902;2024-01-25T05:05:59;101527.53;;;6.43;100.00
17525;BME280;40431;52.198;9.902;2024-01-25T05:08:26;101524.94;;;6.40;100.00
17525;BME280;40431;52.198;9.902;2024-01-25T05:10:54;101525.88;;;6.39;100.00
17525;BME280;40431;52.198;9.902;2024-01-25T05:13:20;101534.84;;;6.40;100.00
17525;BME280;40431;52.198;9.902;2024-01-25T05:15:46;101546.53;;;6.39;100.00
17525;BME280;40431;52.198;9.902;2024-01-25T05:18:13;101550.03;;;6.42;100.00
17525;BME280;40431;52.198;9.902;2024-01-25T05:20:39;101556.31;;;6.43;100.00
17525;BME280;40431;52.198;9.902;2024-01-25T05:23:05;101552.84;;;6.38;100.00
17525;BME280;40431;52.198;9.902;2024-01-25T05:25:32;101554.72;;;6.34;100.00
17525;BME280;40431;52.198;9.902;2024-01-25T05:28:00;101567.19;;;6.38;100.00
17525;BME280;40431;52.198;9.902;2024-01-25T05:30:27;101564.47;;;6.40;100.00
17525;BME280;40431;52.198;9.902;2024-01-25T05:32:56;101569.97;;;6.35;100.00
17525;BME280;40431;52.198;9.902;2024-01-25T05:35:26;101576.28;;;6.34;100.00
17525;BME280;40431;52.198;9.902;2024-01-25T05:38:04;101578.16;;;6.32;100.00
17525;BME280;40431;52.198;9.902;2024-01-25T05:40:37;101579.84;;;6.36;100.00
17525;BME280;40431;52.198;9.902;2024-01-25T05:43:13;101577.25;;;6.33;100.00
17525;BME280;40431;52.198;9.902;2024-01-25T05:45:42;101576.28;;;6.34;100.00
17525;BME280;40431;52.198;9.902;2024-01-25T05:48:20;101571.00;;;6.31;100.00
17525;BME280;40431;52.198;9.902;2024-01-25T05:50:57;101573.84;;;6.25;100.00
17525;BME280;40431;52.198;9.902;2024-01-25T05:53:32;101575.63;;;6.26;100.00
17525;BME280;40431;52.198;9.902;2024-01-25T05:56:05;101569.41;;;6.24;100.00
17525;BME280;40431;52.198;9.902;2024-01-25T05:58:40;101580.19;;;6.24;100.00
17525;BME280;40431;52.198;9.902;2024-01-25T06:01:13;101576.63;;;6.22;100.00
17525;BME280;40431;52.198;9.902;2024-01-25T06:03:52;101577.63;;;6.17;100.00
17525;BME280;40431;52.198;9.902;2024-01-25T06:06:24;101574.94;;;6.17;100.00
17525;BME280;40431;52.198;9.902;2024-01-25T06:08:54;101583.88;;;6.20;100.00
17525;BME280;40431;52.198;9.902;2024-01-25T06:11:23;101587.50;;;6.18;100.00
17525;BME280;40431;52.198;9.902;2024-01-25T06:13:54;101567.72;;;6.20;100.00
17525;BME280;40431;52.198;9.902;2024-01-25T06:16:26;101578.66;;;6.13;100.00
17525;BME280;40431;52.198;9.902;2024-01-25T06:18:54;101593.13;;;6.09;100.00
17525;BME280;40431;52.198;9.902;2024-01-25T06:21:22;101583.25;;;6.08;100.00
17525;BME280;40431;52.198;9.902;2024-01-25T06:23:51;101592.22;;;6.09;100.00
17525;BME280;40431;52.198;9.902;2024-01-25T06:26:20;101586.09;;;6.02;100.00
17525;BME280;40431;52.198;9.902;2024-01-25T06:28:48;101593.31;;;6.01;100.00
17525;BME280;40431;52.198;9.902;2024-01-25T06:31:18;101596.09;;;5.98;100.00
17525;BME280;40431;52.198;9.902;2024-01-25T06:33:45;101599.66;;;5.99;100.00
17525;BME280;40431;52.198;9.902;2024-01-25T06:36:16;101603.31;;;5.95;100.00
17525;BME280;40431;52.198;9.902;2024-01-25T06:38:44;101604.31;;;5.91;100.00
17525;BME280;40431;52.198;9.902;2024-01-25T06:41:12;101611.56;;;5.87;100.00
17525;BME280;40431;52.198;9.902;2024-01-25T06:43:41;101613.31;;;5.90;100.00
17525;BME280;40431;52.198;9.902;2024-01-25T06:46:09;101616.09;;;5.87;100.00
17525;BME280;40431;52.198;9.902;2024-01-25T06:48:38;101616.91;;;5.89;100.00
17525;BME280;40431;52.198;9.902;2024-01-25T06:51:06;101632.06;;;5.94;100.00
17525;BME280;40431;52.198;9.902;2024-01-25T06:53:34;101637.53;;;5.90;100.00
17525;BME280;40431;52.198;9.902;2024-01-25T06:56:01;101641.19;;;5.87;100.00
17525;BME280;40431;52.198;9.902;2024-01-25T06:58:29;101644.81;;;5.84;100.00
17525;BME280;40431;52.198;9.902;2024-01-25T07:00:57;101646.66;;;5.84;100.00
17525;BME280;40431;52.198;9.902;2024-01-25T07:03:25;101653.81;;;5.83;100.00
17525;BME280;40431;52.198;9.902;2024-01-25T07:05:55;101659.19;;;5.85;100.00
17525;BME280;40431;52.198;9.902;2024-01-25T07:08:23;101656.50;;;5.83;100.00
17525;BME280;40431;52.198;9.902;2024-01-25T07:10:51;101660.97;;;5.84;100.00
17525;BME280;40431;52.198;9.902;2024-01-25T07:13:19;101660.06;;;5.85;100.00
17525;BME280;40431;52.198;9.902;2024-01-25T07:15:47;101669.91;;;5.87;100.00
17525;BME280;40431;52.198;9.902;2024-01-25T07:18:15;101665.66;;;5.76;100.00
17525;BME280;40431;52.198;9.902;2024-01-25T07:20:43;101677.25;;;5.80;100.00
17525;BME280;40431;52.198;9.902;2024-01-25T07:23:12;101673.69;;;5.78;100.00
17525;BME280;40431;52.198;9.902;2024-01-25T07:25:40;101662.09;;;5.74;100.00
17525;BME280;40431;52.198;9.902;2024-01-25T07:28:11;101676.47;;;5.75;100.00
17525;BME280;40431;52.198;9.902;2024-01-25T07:30:40;101674.66;;;5.75;100.00
17525;BME280;40431;52.198;9.902;2024-01-25T07:33:07;101680.97;;;5.73;100.00
17525;BME280;40431;52.198;9.902;2024-01-25T07:35:35;101689.81;;;5.79;100.00
17525;BME280;40431;52.198;9.902;2024-01-25T07:38:06;101678.25;;;5.74;100.00
17525;BME280;40431;52.198;9.902;2024-01-25T07:40:36;101692.56;;;5.76;100.00
17525;BME280;40431;52.198;9.902;2024-01-25T07:43:03;101680.00;;;5.77;100.00
17525;BME280;40431;52.198;9.902;2024-01-25T07:45:31;101690.72;;;5.78;100.00
17525;BME280;40431;52.198;9.902;2024-01-25T07:47:59;101685.31;;;5.80;100.00
17525;BME280;40431;52.198;9.902;2024-01-25T07:50:27;101681.78;;;5.78;100.00
17525;BME280;40431;52.198;9.902;2024-01-25T07:52:55;101683.50;;;5.80;100.00
17525;BME280;40431;52.198;9.902;2024-01-25T07:55:26;101685.34;;;5.78;100.00
17525;BME280;40431;52.198;9.902;2024-01-25T07:57:56;101693.38;;;5.81;100.00
17525;BME280;40431;52.198;9.902;2024-01-25T08:00:24;101706.81;;;5.81;100.00
17525;BME280;40431;52.198;9.902;2024-01-25T08:02:55;101708.56;;;5.84;100.00
17525;BME280;40431;52.198;9.902;2024-01-25T08:05:23;101709.44;;;5.84;100.00
17525;BME280;40431;52.198;9.902;2024-01-25T08:07:51;101718.47;;;5.82;100.00
17525;BME280;40431;52.198;9.902;2024-01-25T08:10:21;101715.72;;;5.83;100.00
17525;BME280;40431;52.198;9.902;2024-01-25T08:12:48;101713.78;;;5.92;100.00
17525;BME280;40431;52.198;9.902;2024-01-25T08:15:22;101715.50;;;5.93;100.00
17525;BME280;40431;52.198;9.902;2024-01-25T08:17:49;101711.91;;;5.94;100.00
17525;BME280;40431;52.198;9.902;2024-01-25T08:20:18;101712.72;;;5.99;100.00
17525;BME280;40431;52.198;9.902;2024-01-25T08:22:46;101702.88;;;5.98;100.00
17525;BME280;40431;52.198;9.902;2024-01-25T08:25:14;101703.78;;;5.98;100.00
17525;BME280;40431;52.198;9.902;2024-01-25T08:27:42;101710.13;;;5.94;100.00
17525;BME280;40431;52.198;9.902;2024-01-25T08:30:10;101713.72;;;5.93;100.00
17525;BME280;40431;52.198;9.902;2024-01-25T08:32:40;101719.94;;;5.98;100.00
17525;BME280;40431;52.198;9.902;2024-01-25T08:35:08;101737.84;;;5.99;100.00
17525;BME280;40431;52.198;9.902;2024-01-25T08:37:36;101738.72;;;6.00;100.00
17525;BME280;40431;52.198;9.902;2024-01-25T08:40:06;101734.09;;;6.07;100.00
17525;BME280;40431;52.198;9.902;2024-01-25T08:42:33;101738.44;;;6.12;100.00
17525;BME280;40431;52.198;9.902;2024-01-25T08:45:01;101743.91;;;6.09;100.00
17525;BME280;40431;52.198;9.902;2024-01-25T08:47:34;101743.97;;;6.06;100.00
17525;BME280;40431;52.198;9.902;2024-01-25T08:50:04;101747.47;;;6.10;100.00
17525;BME280;40431;52.198;9.902;2024-01-25T08:52:36;101753.78;;;6.09;100.00
17525;BME280;40431;52.198;9.902;2024-01-25T08:55:05;101757.22;;;6.15;100.00
17525;BME280;40431;52.198;9.902;2024-01-25T08:57:33;101752.00;;;6.09;100.00
17525;BME280;40431;52.198;9.902;2024-01-25T09:00:01;101756.41;;;6.12;100.00
17525;BME280;40431;52.198;9.902;2024-01-25T09:02:34;101756.28;;;6.16;100.00
17525;BME280;40431;52.198;9.902;2024-01-25T09:05:04;101767.94;;;6.18;100.00
17525;BME280;40431;52.198;9.902;2024-01-25T09:07:31;101770.84;;;6.09;100.00
17525;BME280;40431;52.198;9.902;2024-01-25T09:09:59;101772.56;;;6.12;100.00
17525;BME280;40431;52.198;9.902;2024-01-25T09:12:27;101780.66;;;6.12;100.00
17525;BME280;40431;52.198;9.902;2024-01-25T09:14:55;101785.00;;;6.17;100.00
17525;BME280;40431;52.198;9.902;2024-01-25T09:17:23;101785.84;;;6.21;100.00
17525;BME280;40431;52.198;9.902;2024-01-25T09:19:51;101776.00;;;6.18;100.00
17525;BME280;40431;52.198;9.902;2024-01-25T09:22:20;101780.44;;;6.21;100.00
17525;BME280;40431;52.198;9.902;2024-01-25T09:24:48;101777.78;;;6.20;100.00
17525;BME280;40431;52.198;9.902;2024-01-25T09:27:16;101785.72;;;6.26;100.00
17525;BME280;40431;52.198;9.902;2024-01-25T09:29:44;101788.47;;;6.23;100.00
17525;BME280;40431;52.198;9.902;2024-01-25T09:32:11;101782.22;;;6.21;100.00
17525;BME280;40431;52.198;9.902;2024-01-25T09:34:40;101793.88;;;6.23;100.00
17525;BME280;40431;52.198;9.902;2024-01-25T09:37:10;101788.56;;;6.20;100.00
17525;BME280;40431;52.198;9.902;2024-01-25T09:39:40;101799.34;;;6.20;100.00
17525;BME280;40431;52.198;9.902;2024-01-25T09:42:10;101794.81;;;6.20;100.00
17525;BME280;40431;52.198;9.902;2024-01-25T09:44:41;101790.19;;;6.27;100.00
17525;BME280;40431;52.198;9.902;2024-01-25T09:47:10;101801.03;;;6.24;100.00
17525;BME280;40431;52.198;9.902;2024-01-25T09:49:38;101796.44;;;6.27;100.00
17525;BME280;40431;52.198;9.902;2024-01-25T09:52:12;101792.66;;;6.36;100.00
17525;BME280;40431;52.198;9.902;2024-01-25T09:54:43;101798.03;;;6.36;100.00
17525;BME280;40431;52.198;9.902;2024-01-25T09:57:14;101798.09;;;6.34;100.00
17525;BME280;40431;52.198;9.902;2024-01-25T09:59:43;101804.28;;;6.38;100.00
17525;BME280;40431;52.198;9.902;2024-01-25T10:02:11;101809.59;;;6.41;100.00
17525;BME280;40431;52.198;9.902;2024-01-25T10:04:40;101820.22;;;6.47;100.00
17525;BME280;40431;52.198;9.902;2024-01-25T10:07:07;101819.16;;;6.55;100.00
17525;BME280;40431;52.198;9.902;2024-01-25T10:09:38;101812.09;;;6.50;100.00
17525;BME280;40431;52.198;9.902;2024-01-25T10:12:09;101814.81;;;6.47;100.00
17525;BME280;40431;52.198;9.902;2024-01-25T10:14:37;101810.19;;;6.54;100.00
17525;BME280;40431;52.198;9.902;2024-01-25T10:17:05;101812.78;;;6.59;100.00
17525;BME280;40431;52.198;9.902;2024-01-25T10:19:33;101814.47;;;6.63;100.00
17525;BME280;40431;52.198;9.902;2024-01-25T10:22:01;101810.91;;;6.62;100.00
17525;BME280;40431;52.198;9.902;2024-01-25T10:24:29;101819.78;;;6.66;100.00
17525;BME280;40431;52.198;9.902;2024-01-25T10:26:57;101822.25;;;6.75;100.00
17525;BME280;40431;52.198;9.902;2024-01-25T10:29:28;101822.09;;;6.81;100.00
17525;BME280;40431;52.198;9.902;2024-01-25T10:31:58;101818.41;;;6.85;100.00
17525;BME280;40431;52.198;9.902;2024-01-25T10:34:27;101819.25;;;6.88;100.00
17525;BME280;40431;52.198;9.902;2024-01-25T10:36:57;101817.25;;;6.96;100.00
17525;BME280;40431;52.198;9.902;2024-01-25T10:39:28;101812.66;;;6.99;100.00
17525;BME280;40431;52.198;9.902;2024-01-25T10:42:00;101809.75;;;7.07;100.00
17525;BME280;40431;52.198;9.902;2024-01-25T10:44:29;101812.50;;;7.06;100.00
17525;BME280;40431;52.198;9.902;2024-01-25T10:46:58;101810.00;;;6.98;100.00
17525;BME280;40431;52.198;9.902;2024-01-25T10:49:31;101802.91;;;6.95;100.00
17525;BME280;40431;52.198;9.902;2024-01-25T10:51:59;101807.38;;;6.95;100.00
17525;BME280;40431;52.198;9.902;2024-01-25T10:54:27;101817.25;;;6.96;100.00
17525;BME280;40431;52.198;9.902;2024-01-25T10:56:58;101814.56;;;6.96;100.00
17525;BME280;40431;52.198;9.902;2024-01-25T10:59:29;101817.16;;;6.99;100.00
17525;BME280;40431;52.198;9.902;2024-01-25T11:01:57;101823.31;;;7.04;100.00
17525;BME280;40431;52.198;9.902;2024-01-25T11:04:32;101829.50;;;7.09;100.00
17525;BME280;40431;52.198;9.902;2024-01-25T11:07:06;101810.84;;;7.00;100.00
17525;BME280;40431;52.198;9.902;2024-01-25T11:09:35;101815.38;;;6.98;100.00
17525;BME280;40431;52.198;9.902;2024-01-25T11:12:11;101809.03;;;7.00;100.00
17525;BME280;40431;52.198;9.902;2024-01-25T11:14:41;101805.31;;;7.06;100.00
17525;BME280;40431;52.198;9.902;2024-01-25T11:17:19;101825.69;;;7.16;100.00
17525;BME280;40431;52.198;9.902;2024-01-25T11:19:49;101816.53;;;7.24;100.00
17525;BME280;40431;52.198;9.902;2024-01-25T11:22:17;101816.44;;;7.27;100.00
17525;BME280;40431;52.198;9.902;2024-01-25T11:24:45;101812.03;;;7.23;100.00
17525;BME280;40431;52.198;9.902;2024-01-25T11:27:13;101817.34;;;7.26;100.00
17525;BME280;40431;52.198;9.902;2024-01-25T11:29:42;101809.34;;;7.23;100.00
17525;BME280;40431;52.198;9.902;2024-01-25T11:32:09;101814.84;;;7.19;100.00
17525;BME280;40431;52.198;9.902;2024-01-25T11:34:35;101819.28;;;7.22;100.00
17525;BME280;40431;52.198;9.902;2024-01-25T11:37:02;101812.97;;;7.22;100.00
17525;BME280;40431;52.198;9.902;2024-01-25T11:39:28;101821.81;;;7.27;100.00
17525;BME280;40431;52.198;9.902;2024-01-25T11:41:54;101826.31;;;7.28;100.00
17525;BME280;40431;52.198;9.902;2024-01-25T11:44:21;101810.06;;;7.29;100.00
17525;BME280;40431;52.198;9.902;2024-01-25T11:46:53;101821.72;;;7.30;100.00
17525;BME280;40431;52.198;9.902;2024-01-25T11:49:24;101815.41;;;7.31;100.00
17525;BME280;40431;52.198;9.902;2024-01-25T11:51:51;101811.75;;;7.33;100.00
17525;BME280;40431;52.198;9.902;2024-01-25T11:54:19;101813.63;;;7.30;100.00
17525;BME280;40431;52.198;9.902;2024-01-25T11:56:49;101810.06;;;7.29;100.00
17525;BME280;40431;52.198;9.902;2024-01-25T11:59:17;101813.69;;;7.28;100.00
17525;BME280;40431;52.198;9.902;2024-01-25T12:01:45;101808.13;;;7.34;100.00
17525;BME280;40431;52.198;9.902;2024-01-25T12:04:14;101814.41;;;7.35;100.00
17525;BME280;40431;52.198;9.902;2024-01-25T12:06:42;101805.44;;;7.34;100.00
17525;BME280;40431;52.198;9.902;2024-01-25T12:09:10;101803.81;;;7.29;100.00
17525;BME280;40431;52.198;9.902;2024-01-25T12:11:40;101799.16;;;7.34;100.00
17525;BME280;40431;52.198;9.902;2024-01-25T12:14:08;101793.84;;;7.31;100.00
17525;BME280;40431;52.198;9.902;2024-01-25T12:16:36;101797.53;;;7.27;100.00
17525;BME280;40431;52.198;9.902;2024-01-25T12:19:05;101789.56;;;7.24;100.00
17525;BME280;40431;52.198;9.902;2024-01-25T12:21:35;101778.66;;;7.27;100.00
17525;BME280;40431;52.198;9.902;2024-01-25T12:24:08;101778.66;;;7.27;100.00
17525;BME280;40431;52.198;9.902;2024-01-25T12:26:36;101773.22;;;7.28;100.00
17525;BME280;40431;52.198;9.902;2024-01-25T12:29:07;101777.59;;;7.34;100.00
17525;BME280;40431;52.198;9.902;2024-01-25T12:31:39;101776.72;;;7.32;100.00
17525;BME280;40431;52.198;9.902;2024-01-25T12:34:13;101781.09;;;7.36;100.00
17525;BME280;40431;52.198;9.902;2024-01-25T12:36:43;101777.31;;;7.43;100.00
17525;BME280;40431;52.198;9.902;2024-01-25T12:39:11;101774.47;;;7.48;100.00
17525;BME280;40431;52.198;9.902;2024-01-25T12:41:41;101768.16;;;7.49;100.00
17525;BME280;40431;52.198;9.902;2024-01-25T12:44:09;101769.13;;;7.46;100.00
17525;BME280;40431;52.198;9.902;2024-01-25T12:46:36;101766.59;;;7.40;100.00
17525;BME280;40431;52.198;9.902;2024-01-25T12:49:04;101771.16;;;7.38;100.00
17525;BME280;40431;52.198;9.902;2024-01-25T12:51:31;101780.09;;;7.40;100.00
17525;BME280;40431;52.198;9.902;2024-01-25T12:54:01;101778.34;;;7.38;100.00
17525;BME280;40431;52.198;9.902;2024-01-25T12:56:29;101771.06;;;7.41;100.00
17525;BME280;40431;52.198;9.902;2024-01-25T12:58:57;101779.06;;;7.44;100.00
17525;BME280;40431;52.198;9.902;2024-01-25T13:01:25;101778.16;;;7.45;100.00
17525;BME280;40431;52.198;9.902;2024-01-25T13:03:53;101779.94;;;7.46;100.00